sensor_id;sensor_type;location;lat;lon;timestamp;temperature;humidity
33865;DHT22;20159;51.072;13.526;2022-08-18T00:02:04;21.90;59.40
33865;DHT22;20159;51.072;13.526;2022-08-18T00:04:32;21.90;60.30
33865;DHT22;20159;51.072;13.526;2022-08-18T00:06:57;21.90;59.60
33865;DHT22;20159;51.072;13.526;2022-08-18T00:09:23;21.90;59.60
33865;DHT22;20159;51.072;13.526;2022-08-18T00:11:48;21.90;59.40
33865;DHT22;20159;51.072;13.526;2022-08-18T00:14:19;21.90;59.40
33865;DHT22;20159;51.072;13.526;2022-08-18T00:16:45;21.90;59.60
33865;DHT22;20159;51.072;13.526;2022-08-18T00:19:11;21.90;59.70
33865;DHT22;20159;51.072;13.526;2022-08-18T00:21:37;21.90;59.80
33865;DHT22;20159;51.072;13.526;2022-08-18T00:24:03;21.90;59.90
33865;DHT22;20159;51.072;13.526;2022-08-18T00:26:29;21.90;59.70
33865;DHT22;20159;51.072;13.526;2022-08-18T00:28:55;21.90;59.70
33865;DHT22;20159;51.072;13.526;2022-08-18T00:31:20;21.90;59.50
33865;DHT22;20159;51.072;13.526;2022-08-18T00:33:46;22.00;59.40
33865;DHT22;20159;51.072;13.526;2022-08-18T00:36:11;21.90;59.60
33865;DHT22;20159;51.072;13.526;2022-08-18T00:38:38;22.00;59.60
33865;DHT22;20159;51.072;13.526;2022-08-18T00:41:04;22.70;60.10
33865;DHT22;20159;51.072;13.526;2022-08-18T00:43:56;22.00;60.00
33865;DHT22;20159;51.072;13.526;2022-08-18T00:46:33;22.00;60.10
33865;DHT22;20159;51.072;13.526;2022-08-18T00:49:00;22.00;60.40
33865;DHT22;20159;51.072;13.526;2022-08-18T00:51:42;22.00;60.10
33865;DHT22;20159;51.072;13.526;2022-08-18T00:54:20;21.90;60.70
33865;DHT22;20159;51.072;13.526;2022-08-18T00:56:54;22.00;60.90
33865;DHT22;20159;51.072;13.526;2022-08-18T00:59:29;21.90;60.60
33865;DHT22;20159;51.072;13.526;2022-08-18T01:01:59;21.90;61.00
33865;DHT22;20159;51.072;13.526;2022-08-18T01:04:44;21.90;60.70
33865;DHT22;20159;51.072;13.526;2022-08-18T01:07:18;21.70;60.70
33865;DHT22;20159;51.072;13.526;2022-08-18T01:09:46;21.80;60.70
33865;DHT22;20159;51.072;13.526;2022-08-18T01:12:12;21.70;60.70
33865;DHT22;20159;51.072;13.526;2022-08-18T01:14:37;21.70;60.40
33865;DHT22;20159;51.072;13.526;2022-08-18T01:17:03;21.70;60.80
33865;DHT22;20159;51.072;13.526;2022-08-18T01:19:48;21.60;61.10
33865;DHT22;20159;51.072;13.526;2022-08-18T01:22:50;21.60;61.20
33865;DHT22;20159;51.072;13.526;2022-08-18T01:25:20;21.60;61.30
33865;DHT22;20159;51.072;13.526;2022-08-18T01:28:06;21.50;61.30
33865;DHT22;20159;51.072;13.526;2022-08-18T01:30:43;21.50;61.40
33865;DHT22;20159;51.072;13.526;2022-08-18T01:33:08;21.50;61.70
33865;DHT22;20159;51.072;13.526;2022-08-18T01:35:36;21.50;61.60
33865;DHT22;20159;51.072;13.526;2022-08-18T01:38:02;21.40;61.50
33865;DHT22;20159;51.072;13.526;2022-08-18T01:40:27;21.40;61.60
33865;DHT22;20159;51.072;13.526;2022-08-18T01:42:53;21.40;61.70
33865;DHT22;20159;51.072;13.526;2022-08-18T01:45:20;21.30;62.20
33865;DHT22;20159;51.072;13.526;2022-08-18T01:47:46;21.30;62.30
33865;DHT22;20159;51.072;13.526;2022-08-18T01:50:11;21.30;62.50
33865;DHT22;20159;51.072;13.526;2022-08-18T01:52:38;21.30;62.50
33865;DHT22;20159;51.072;13.526;2022-08-18T01:55:04;21.30;62.60
33865;DHT22;20159;51.072;13.526;2022-08-18T01:57:30;21.20;62.50
33865;DHT22;20159;51.072;13.526;2022-08-18T01:59:56;21.20;62.50
33865;DHT22;20159;51.072;13.526;2022-08-18T02:02:28;21.20;62.90
33865;DHT22;20159;51.072;13.526;2022-08-18T02:05:02;21.20;62.80
33865;DHT22;20159;51.072;13.526;2022-08-18T02:07:28;21.20;63.40
33865;DHT22;20159;51.072;13.526;2022-08-18T02:09:54;21.10;63.10
33865;DHT22;20159;51.072;13.526;2022-08-18T02:12:19;21.10;63.40
33865;DHT22;20159;51.072;13.526;2022-08-18T02:14:45;21.10;63.50
33865;DHT22;20159;51.072;13.526;2022-08-18T02:17:12;21.10;63.50
33865;DHT22;20159;51.072;13.526;2022-08-18T02:19:41;21.10;63.80
33865;DHT22;20159;51.072;13.526;2022-08-18T02:22:08;21.10;63.90
33865;DHT22;20159;51.072;13.526;2022-08-18T02:24:35;21.20;63.90
33865;DHT22;20159;51.072;13.526;2022-08-18T02:27:01;21.20;63.90
33865;DHT22;20159;51.072;13.526;2022-08-18T02:29:27;21.20;63.60
33865;DHT22;20159;51.072;13.526;2022-08-18T02:31:53;21.30;63.60
33865;DHT22;20159;51.072;13.526;2022-08-18T02:34:18;21.30;63.40
33865;DHT22;20159;51.072;13.526;2022-08-18T02:36:44;21.30;63.20
33865;DHT22;20159;51.072;13.526;2022-08-18T02:39:10;21.40;63.30
33865;DHT22;20159;51.072;13.526;2022-08-18T02:41:36;21.40;63.50
33865;DHT22;20159;51.072;13.526;2022-08-18T02:44:01;21.50;63.50
33865;DHT22;20159;51.072;13.526;2022-08-18T02:46:27;21.50;63.50
33865;DHT22;20159;51.072;13.526;2022-08-18T02:48:53;21.50;63.10
33865;DHT22;20159;51.072;13.526;2022-08-18T02:51:19;21.50;63.30
33865;DHT22;20159;51.072;13.526;2022-08-18T02:53:46;21.50;63.00
33865;DHT22;20159;51.072;13.526;2022-08-18T02:56:21;21.50;63.20
33865;DHT22;20159;51.072;13.526;2022-08-18T02:59:00;21.40;63.50
33865;DHT22;20159;51.072;13.526;2022-08-18T03:01:31;21.50;63.80
33865;DHT22;20159;51.072;13.526;2022-08-18T03:03:58;21.40;64.00
33865;DHT22;20159;51.072;13.526;2022-08-18T03:06:26;21.40;63.30
33865;DHT22;20159;51.072;13.526;2022-08-18T03:08:53;20.70;63.30
33865;DHT22;20159;51.072;13.526;2022-08-18T03:11:22;21.40;63.90
33865;DHT22;20159;51.072;13.526;2022-08-18T03:13:48;21.40;64.20
33865;DHT22;20159;51.072;13.526;2022-08-18T03:16:13;21.30;63.50
33865;DHT22;20159;51.072;13.526;2022-08-18T03:18:40;21.30;64.00
33865;DHT22;20159;51.072;13.526;2022-08-18T03:21:12;21.20;64.20
33865;DHT22;20159;51.072;13.526;2022-08-18T03:23:38;21.20;64.50
33865;DHT22;20159;51.072;13.526;2022-08-18T03:26:14;21.20;64.00
33865;DHT22;20159;51.072;13.526;2022-08-18T03:28:43;21.20;64.50
33865;DHT22;20159;51.072;13.526;2022-08-18T03:31:10;21.10;64.20
33865;DHT22;20159;51.072;13.526;2022-08-18T03:33:36;21.10;64.70
33865;DHT22;20159;51.072;13.526;2022-08-18T03:36:07;21.10;64.70
33865;DHT22;20159;51.072;13.526;2022-08-18T03:38:34;21.10;64.40
33865;DHT22;20159;51.072;13.526;2022-08-18T03:40:59;21.00;64.40
33865;DHT22;20159;51.072;13.526;2022-08-18T03:43:25;21.00;64.70
33865;DHT22;20159;51.072;13.526;2022-08-18T03:45:52;21.00;64.90
33865;DHT22;20159;51.072;13.526;2022-08-18T03:48:19;21.00;64.70
33865;DHT22;20159;51.072;13.526;2022-08-18T03:50:45;20.90;64.90
33865;DHT22;20159;51.072;13.526;2022-08-18T03:53:13;20.90;64.80
33865;DHT22;20159;51.072;13.526;2022-08-18T03:55:42;20.90;64.80
33865;DHT22;20159;51.072;13.526;2022-08-18T03:58:07;20.90;65.30
33865;DHT22;20159;51.072;13.526;2022-08-18T04:00:37;20.80;65.10
33865;DHT22;20159;51.072;13.526;2022-08-18T04:03:03;20.80;65.20
33865;DHT22;20159;51.072;13.526;2022-08-18T04:05:28;20.80;65.20
33865;DHT22;20159;51.072;13.526;2022-08-18T04:07:54;20.70;65.40
33865;DHT22;20159;51.072;13.526;2022-08-18T04:10:22;20.70;65.60
33865;DHT22;20159;51.072;13.526;2022-08-18T04:12:47;20.70;65.80
33865;DHT22;20159;51.072;13.526;2022-08-18T04:15:13;20.60;65.30
33865;DHT22;20159;51.072;13.526;2022-08-18T04:17:38;20.60;65.60
33865;DHT22;20159;51.072;13.526;2022-08-18T04:20:04;20.60;65.50
33865;DHT22;20159;51.072;13.526;2022-08-18T04:22:30;20.50;65.90
33865;DHT22;20159;51.072;13.526;2022-08-18T04:24:58;20.50;65.90
33865;DHT22;20159;51.072;13.526;2022-08-18T04:27:25;20.50;66.10
33865;DHT22;20159;51.072;13.526;2022-08-18T04:29:51;20.50;66.30
33865;DHT22;20159;51.072;13.526;2022-08-18T04:32:17;20.50;66.10
33865;DHT22;20159;51.072;13.526;2022-08-18T04:34:44;20.50;66.40
33865;DHT22;20159;51.072;13.526;2022-08-18T04:37:09;20.50;66.30
33865;DHT22;20159;51.072;13.526;2022-08-18T04:39:35;20.50;66.10
33865;DHT22;20159;51.072;13.526;2022-08-18T04:42:01;20.50;66.30
33865;DHT22;20159;51.072;13.526;2022-08-18T04:44:28;20.50;66.50
33865;DHT22;20159;51.072;13.526;2022-08-18T04:46:53;20.50;66.60
33865;DHT22;20159;51.072;13.526;2022-08-18T04:49:23;20.50;66.70
33865;DHT22;20159;51.072;13.526;2022-08-18T04:51:50;20.60;66.70
33865;DHT22;20159;51.072;13.526;2022-08-18T04:54:37;20.70;67.00
33865;DHT22;20159;51.072;13.526;2022-08-18T04:57:12;20.80;67.30
33865;DHT22;20159;51.072;13.526;2022-08-18T04:59:39;20.90;67.80
33865;DHT22;20159;51.072;13.526;2022-08-18T05:02:05;21.10;67.80
33865;DHT22;20159;51.072;13.526;2022-08-18T05:04:42;21.30;67.50
33865;DHT22;20159;51.072;13.526;2022-08-18T05:07:12;21.50;67.20
33865;DHT22;20159;51.072;13.526;2022-08-18T05:09:38;21.80;67.40
33865;DHT22;20159;51.072;13.526;2022-08-18T05:12:06;22.00;66.80
33865;DHT22;20159;51.072;13.526;2022-08-18T05:14:32;22.20;66.00
33865;DHT22;20159;51.072;13.526;2022-08-18T05:16:59;22.50;66.00
33865;DHT22;20159;51.072;13.526;2022-08-18T05:19:25;22.80;66.10
33865;DHT22;20159;51.072;13.526;2022-08-18T05:21:52;23.10;65.40
33865;DHT22;20159;51.072;13.526;2022-08-18T05:24:19;23.40;64.70
33865;DHT22;20159;51.072;13.526;2022-08-18T05:26:44;23.70;63.80
33865;DHT22;20159;51.072;13.526;2022-08-18T05:29:10;24.00;63.40
33865;DHT22;20159;51.072;13.526;2022-08-18T05:31:36;24.30;63.10
33865;DHT22;20159;51.072;13.526;2022-08-18T05:34:02;24.50;62.40
33865;DHT22;20159;51.072;13.526;2022-08-18T05:37:19;24.70;61.80
33865;DHT22;20159;51.072;13.526;2022-08-18T05:40:12;25.00;61.10
33865;DHT22;20159;51.072;13.526;2022-08-18T05:42:39;25.40;61.20
33865;DHT22;20159;51.072;13.526;2022-08-18T05:45:14;25.70;61.30
33865;DHT22;20159;51.072;13.526;2022-08-18T05:47:40;26.00;60.00
33865;DHT22;20159;51.072;13.526;2022-08-18T05:50:16;26.40;60.80
33865;DHT22;20159;51.072;13.526;2022-08-18T05:52:51;26.80;60.10
33865;DHT22;20159;51.072;13.526;2022-08-18T05:56:02;27.30;59.10
33865;DHT22;20159;51.072;13.526;2022-08-18T05:58:49;27.80;58.60
33865;DHT22;20159;51.072;13.526;2022-08-18T06:01:23;28.40;57.70
33865;DHT22;20159;51.072;13.526;2022-08-18T06:04:00;30.80;58.30
33865;DHT22;20159;51.072;13.526;2022-08-18T06:06:29;29.40;55.70
33865;DHT22;20159;51.072;13.526;2022-08-18T06:09:23;29.90;55.90
33865;DHT22;20159;51.072;13.526;2022-08-18T06:11:52;30.40;54.70
33865;DHT22;20159;51.072;13.526;2022-08-18T06:14:19;30.90;54.20
33865;DHT22;20159;51.072;13.526;2022-08-18T06:20:03;31.70;52.70
33865;DHT22;20159;51.072;13.526;2022-08-18T06:22:43;32.20;52.00
33865;DHT22;20159;51.072;13.526;2022-08-18T06:25:17;32.50;50.40
33865;DHT22;20159;51.072;13.526;2022-08-18T06:28:10;32.80;49.00
33865;DHT22;20159;51.072;13.526;2022-08-18T06:30:46;32.90;49.10
33865;DHT22;20159;51.072;13.526;2022-08-18T06:33:40;33.10;47.90
33865;DHT22;20159;51.072;13.526;2022-08-18T06:36:36;33.10;48.10
33865;DHT22;20159;51.072;13.526;2022-08-18T06:41:45;33.20;49.70
33865;DHT22;20159;51.072;13.526;2022-08-18T06:44:28;33.20;48.10
33865;DHT22;20159;51.072;13.526;2022-08-18T06:47:06;33.30;48.30
33865;DHT22;20159;51.072;13.526;2022-08-18T06:49:49;33.40;48.30
33865;DHT22;20159;51.072;13.526;2022-08-18T06:52:28;33.40;48.00
33865;DHT22;20159;51.072;13.526;2022-08-18T06:54:59;33.40;48.10
33865;DHT22;20159;51.072;13.526;2022-08-18T06:57:33;33.60;45.80
33865;DHT22;20159;51.072;13.526;2022-08-18T07:00:08;33.80;47.60
33865;DHT22;20159;51.072;13.526;2022-08-18T07:02:41;34.20;46.80
33865;DHT22;20159;51.072;13.526;2022-08-18T07:07:40;35.20;44.70
33865;DHT22;20159;51.072;13.526;2022-08-18T07:12:38;36.30;42.00
33865;DHT22;20159;51.072;13.526;2022-08-18T07:15:05;36.60;41.90
33865;DHT22;20159;51.072;13.526;2022-08-18T07:17:34;36.80;40.50
33865;DHT22;20159;51.072;13.526;2022-08-18T07:20:08;37.00;40.00
33865;DHT22;20159;51.072;13.526;2022-08-18T07:25:27;37.00;39.60
33865;DHT22;20159;51.072;13.526;2022-08-18T07:27:53;37.00;38.80
33865;DHT22;20159;51.072;13.526;2022-08-18T07:33:11;36.80;39.10
33865;DHT22;20159;51.072;13.526;2022-08-18T07:35:49;36.50;39.30
33865;DHT22;20159;51.072;13.526;2022-08-18T07:38:24;36.40;39.10
33865;DHT22;20159;51.072;13.526;2022-08-18T07:40:56;36.20;39.80
33865;DHT22;20159;51.072;13.526;2022-08-18T07:43:40;36.00;39.90
33865;DHT22;20159;51.072;13.526;2022-08-18T07:46:15;35.70;40.40
33865;DHT22;20159;51.072;13.526;2022-08-18T07:48:43;35.70;40.30
33865;DHT22;20159;51.072;13.526;2022-08-18T07:53:55;35.60;40.30
33865;DHT22;20159;51.072;13.526;2022-08-18T08:02:49;35.30;40.60
33865;DHT22;20159;51.072;13.526;2022-08-18T08:05:38;35.20;40.70
33865;DHT22;20159;51.072;13.526;2022-08-18T08:08:41;35.00;40.80
33865;DHT22;20159;51.072;13.526;2022-08-18T08:13:55;34.80;40.60
33865;DHT22;20159;51.072;13.526;2022-08-18T08:19:43;34.50;40.90
33865;DHT22;20159;51.072;13.526;2022-08-18T08:25:00;34.40;41.30
33865;DHT22;20159;51.072;13.526;2022-08-18T08:30:05;34.30;41.00
33865;DHT22;20159;51.072;13.526;2022-08-18T08:32:35;34.20;41.00
33865;DHT22;20159;51.072;13.526;2022-08-18T08:35:12;34.20;41.20
33865;DHT22;20159;51.072;13.526;2022-08-18T08:37:57;34.20;41.40
33865;DHT22;20159;51.072;13.526;2022-08-18T08:40:31;34.20;41.30
33865;DHT22;20159;51.072;13.526;2022-08-18T08:43:07;34.20;42.20
33865;DHT22;20159;51.072;13.526;2022-08-18T08:46:18;34.40;42.30
33865;DHT22;20159;51.072;13.526;2022-08-18T08:51:50;35.00;42.20
33865;DHT22;20159;51.072;13.526;2022-08-18T08:54:44;35.40;41.30
33865;DHT22;20159;51.072;13.526;2022-08-18T08:57:12;35.60;40.80
33865;DHT22;20159;51.072;13.526;2022-08-18T08:59:39;36.00;40.90
33865;DHT22;20159;51.072;13.526;2022-08-18T09:04:59;36.70;41.40
33865;DHT22;20159;51.072;13.526;2022-08-18T09:10:20;37.40;39.40
33865;DHT22;20159;51.072;13.526;2022-08-18T09:21:32;38.00;38.10
33865;DHT22;20159;51.072;13.526;2022-08-18T09:24:19;38.10;37.40
33865;DHT22;20159;51.072;13.526;2022-08-18T09:26:52;38.00;37.90
33865;DHT22;20159;51.072;13.526;2022-08-18T09:29:47;37.90;36.90
33865;DHT22;20159;51.072;13.526;2022-08-18T09:37:21;37.40;37.20
33865;DHT22;20159;51.072;13.526;2022-08-18T09:40:09;37.20;36.80
33865;DHT22;20159;51.072;13.526;2022-08-18T09:43:09;37.00;37.40
33865;DHT22;20159;51.072;13.526;2022-08-18T09:51:36;36.40;37.90
33865;DHT22;20159;51.072;13.526;2022-08-18T09:56:17;36.00;37.90
33865;DHT22;20159;51.072;13.526;2022-08-18T09:59:02;35.90;37.90
33865;DHT22;20159;51.072;13.526;2022-08-18T10:06:42;35.80;38.40
33865;DHT22;20159;51.072;13.526;2022-08-18T10:12:49;35.70;38.40
33865;DHT22;20159;51.072;13.526;2022-08-18T10:15:28;35.70;38.40
33865;DHT22;20159;51.072;13.526;2022-08-18T10:23:01;35.40;38.80
33865;DHT22;20159;51.072;13.526;2022-08-18T10:28:05;35.30;38.90
33865;DHT22;20159;51.072;13.526;2022-08-18T10:33:07;35.00;39.30
33865;DHT22;20159;51.072;13.526;2022-08-18T10:38:18;34.70;39.70
33865;DHT22;20159;51.072;13.526;2022-08-18T10:40:57;34.60;39.80
33865;DHT22;20159;51.072;13.526;2022-08-18T10:43:34;34.40;39.80
33865;DHT22;20159;51.072;13.526;2022-08-18T10:46:01;34.30;40.20
33865;DHT22;20159;51.072;13.526;2022-08-18T10:48:32;34.20;40.10
33865;DHT22;20159;51.072;13.526;2022-08-18T10:51:14;34.10;40.70
33865;DHT22;20159;51.072;13.526;2022-08-18T10:53:54;34.00;40.90
33865;DHT22;20159;51.072;13.526;2022-08-18T10:56:38;33.80;41.50
33865;DHT22;20159;51.072;13.526;2022-08-18T10:59:27;33.70;41.40
33865;DHT22;20159;51.072;13.526;2022-08-18T11:04:41;33.50;41.50
33865;DHT22;20159;51.072;13.526;2022-08-18T11:07:11;33.30;41.20
33865;DHT22;20159;51.072;13.526;2022-08-18T11:09:39;33.30;41.30
33865;DHT22;20159;51.072;13.526;2022-08-18T11:12:06;33.10;41.10
33865;DHT22;20159;51.072;13.526;2022-08-18T11:14:47;33.10;41.10
33865;DHT22;20159;51.072;13.526;2022-08-18T11:17:28;32.90;41.50
33865;DHT22;20159;51.072;13.526;2022-08-18T11:19:55;32.80;41.50
33865;DHT22;20159;51.072;13.526;2022-08-18T11:24:49;32.50;41.80
33865;DHT22;20159;51.072;13.526;2022-08-18T11:27:19;32.40;41.80
33865;DHT22;20159;51.072;13.526;2022-08-18T11:29:45;32.20;42.30
33865;DHT22;20159;51.072;13.526;2022-08-18T11:32:44;32.10;42.40
33865;DHT22;20159;51.072;13.526;2022-08-18T11:35:14;31.90;42.80
33865;DHT22;20159;51.072;13.526;2022-08-18T11:45:56;31.40;44.00
33865;DHT22;20159;51.072;13.526;2022-08-18T11:48:34;31.30;44.30
33865;DHT22;20159;51.072;13.526;2022-08-18T11:51:07;31.10;44.60
33865;DHT22;20159;51.072;13.526;2022-08-18T11:58:47;30.90;45.30
33865;DHT22;20159;51.072;13.526;2022-08-18T12:04:39;30.70;45.50
33865;DHT22;20159;51.072;13.526;2022-08-18T12:07:10;30.60;45.80
33865;DHT22;20159;51.072;13.526;2022-08-18T12:12:29;30.50;46.30
33865;DHT22;20159;51.072;13.526;2022-08-18T12:17:38;30.30;46.40
33865;DHT22;20159;51.072;13.526;2022-08-18T12:20:05;30.30;46.50
33865;DHT22;20159;51.072;13.526;2022-08-18T12:22:34;30.30;46.60
33865;DHT22;20159;51.072;13.526;2022-08-18T12:25:01;30.20;46.90
33865;DHT22;20159;51.072;13.526;2022-08-18T12:27:28;30.20;47.20
33865;DHT22;20159;51.072;13.526;2022-08-18T12:29:55;30.20;47.10
33865;DHT22;20159;51.072;13.526;2022-08-18T12:32:23;30.20;47.20
33865;DHT22;20159;51.072;13.526;2022-08-18T12:34:49;30.30;47.20
33865;DHT22;20159;51.072;13.526;2022-08-18T12:37:17;30.40;47.30
33865;DHT22;20159;51.072;13.526;2022-08-18T12:39:43;30.50;47.30
33865;DHT22;20159;51.072;13.526;2022-08-18T12:42:10;30.70;47.20
33865;DHT22;20159;51.072;13.526;2022-08-18T12:44:35;30.90;47.30
33865;DHT22;20159;51.072;13.526;2022-08-18T12:47:03;31.10;46.90
33865;DHT22;20159;51.072;13.526;2022-08-18T12:49:31;31.30;47.10
33865;DHT22;20159;51.072;13.526;2022-08-18T12:51:57;31.50;47.10
33865;DHT22;20159;51.072;13.526;2022-08-18T12:54:23;31.80;46.60
33865;DHT22;20159;51.072;13.526;2022-08-18T12:56:52;31.90;46.60
33865;DHT22;20159;51.072;13.526;2022-08-18T12:59:18;32.20;46.20
33865;DHT22;20159;51.072;13.526;2022-08-18T13:01:44;32.40;46.10
33865;DHT22;20159;51.072;13.526;2022-08-18T13:04:10;32.60;45.60
33865;DHT22;20159;51.072;13.526;2022-08-18T13:06:38;32.80;45.40
33865;DHT22;20159;51.072;13.526;2022-08-18T13:09:05;32.90;45.10
33865;DHT22;20159;51.072;13.526;2022-08-18T13:11:31;33.00;45.00
33865;DHT22;20159;51.072;13.526;2022-08-18T13:13:57;33.10;45.00
33865;DHT22;20159;51.072;13.526;2022-08-18T13:16:24;33.10;44.80
33865;DHT22;20159;51.072;13.526;2022-08-18T13:18:50;33.20;45.00
33865;DHT22;20159;51.072;13.526;2022-08-18T13:21:16;33.20;44.80
33865;DHT22;20159;51.072;13.526;2022-08-18T13:23:43;33.20;44.90
33865;DHT22;20159;51.072;13.526;2022-08-18T13:26:14;33.20;45.00
33865;DHT22;20159;51.072;13.526;2022-08-18T13:28:41;33.30;45.20
33865;DHT22;20159;51.072;13.526;2022-08-18T13:31:06;33.40;45.10
33865;DHT22;20159;51.072;13.526;2022-08-18T13:33:33;33.40;44.70
33865;DHT22;20159;51.072;13.526;2022-08-18T13:35:58;33.50;44.60
33865;DHT22;20159;51.072;13.526;2022-08-18T13:38:24;33.60;44.90
33865;DHT22;20159;51.072;13.526;2022-08-18T13:43:25;33.90;44.40
33865;DHT22;20159;51.072;13.526;2022-08-18T13:45:51;34.00;44.40
33865;DHT22;20159;51.072;13.526;2022-08-18T13:48:16;34.10;44.10
33865;DHT22;20159;51.072;13.526;2022-08-18T13:50:43;34.40;44.50
33865;DHT22;20159;51.072;13.526;2022-08-18T13:53:14;34.40;44.30
33865;DHT22;20159;51.072;13.526;2022-08-18T13:55:39;34.60;43.90
33865;DHT22;20159;51.072;13.526;2022-08-18T13:58:05;34.80;43.90
33865;DHT22;20159;51.072;13.526;2022-08-18T14:00:32;35.00;43.80
33865;DHT22;20159;51.072;13.526;2022-08-18T14:02:59;35.20;43.30
33865;DHT22;20159;51.072;13.526;2022-08-18T14:05:25;35.50;43.00
33865;DHT22;20159;51.072;13.526;2022-08-18T14:07:52;35.50;42.60
33865;DHT22;20159;51.072;13.526;2022-08-18T14:10:18;35.60;42.40
33865;DHT22;20159;51.072;13.526;2022-08-18T14:12:44;35.60;42.30
33865;DHT22;20159;51.072;13.526;2022-08-18T14:15:13;35.60;42.00
33865;DHT22;20159;51.072;13.526;2022-08-18T14:17:39;35.50;41.90
33865;DHT22;20159;51.072;13.526;2022-08-18T14:20:06;35.40;42.00
33865;DHT22;20159;51.072;13.526;2022-08-18T14:22:52;35.30;42.20
33865;DHT22;20159;51.072;13.526;2022-08-18T14:25:36;35.10;42.20
33865;DHT22;20159;51.072;13.526;2022-08-18T14:28:20;35.00;42.50
33865;DHT22;20159;51.072;13.526;2022-08-18T14:30:46;34.80;42.80
33865;DHT22;20159;51.072;13.526;2022-08-18T14:33:12;34.70;43.20
33865;DHT22;20159;51.072;13.526;2022-08-18T14:35:40;34.60;43.10
33865;DHT22;20159;51.072;13.526;2022-08-18T14:38:06;34.50;43.40
33865;DHT22;20159;51.072;13.526;2022-08-18T14:40:32;34.40;43.20
33865;DHT22;20159;51.072;13.526;2022-08-18T14:42:59;34.40;43.50
33865;DHT22;20159;51.072;13.526;2022-08-18T14:45:26;34.30;43.60
33865;DHT22;20159;51.072;13.526;2022-08-18T14:47:52;34.20;43.60
33865;DHT22;20159;51.072;13.526;2022-08-18T14:50:19;34.10;43.80
33865;DHT22;20159;51.072;13.526;2022-08-18T14:52:44;34.00;43.50
33865;DHT22;20159;51.072;13.526;2022-08-18T14:55:10;34.00;43.80
33865;DHT22;20159;51.072;13.526;2022-08-18T14:57:37;33.80;43.80
33865;DHT22;20159;51.072;13.526;2022-08-18T15:00:06;33.70;44.20
33865;DHT22;20159;51.072;13.526;2022-08-18T15:02:35;33.60;44.30
33865;DHT22;20159;51.072;13.526;2022-08-18T15:05:00;33.50;44.50
33865;DHT22;20159;51.072;13.526;2022-08-18T15:07:26;33.40;44.80
33865;DHT22;20159;51.072;13.526;2022-08-18T15:09:51;33.40;45.10
33865;DHT22;20159;51.072;13.526;2022-08-18T15:12:17;33.40;45.10
33865;DHT22;20159;51.072;13.526;2022-08-18T15:14:43;33.50;44.80
33865;DHT22;20159;51.072;13.526;2022-08-18T15:17:08;33.60;44.80
33865;DHT22;20159;51.072;13.526;2022-08-18T15:19:35;33.70;44.70
33865;DHT22;20159;51.072;13.526;2022-08-18T15:22:00;33.80;44.40
33865;DHT22;20159;51.072;13.526;2022-08-18T15:24:44;33.90;44.40
33865;DHT22;20159;51.072;13.526;2022-08-18T15:27:33;34.10;44.40
33865;DHT22;20159;51.072;13.526;2022-08-18T15:30:08;34.10;44.20
33865;DHT22;20159;51.072;13.526;2022-08-18T15:32:35;34.20;44.00
33865;DHT22;20159;51.072;13.526;2022-08-18T15:35:02;34.30;43.90
33865;DHT22;20159;51.072;13.526;2022-08-18T15:37:27;34.40;43.90
33865;DHT22;20159;51.072;13.526;2022-08-18T15:40:11;34.50;43.80
33865;DHT22;20159;51.072;13.526;2022-08-18T15:42:51;34.60;43.80
33865;DHT22;20159;51.072;13.526;2022-08-18T15:45:20;34.80;43.50
33865;DHT22;20159;51.072;13.526;2022-08-18T15:47:46;35.00;43.40
33865;DHT22;20159;51.072;13.526;2022-08-18T15:50:13;35.10;43.10
33865;DHT22;20159;51.072;13.526;2022-08-18T15:55:19;35.50;42.40
33865;DHT22;20159;51.072;13.526;2022-08-18T15:57:46;35.60;42.30
33865;DHT22;20159;51.072;13.526;2022-08-18T16:00:12;35.70;42.20
33865;DHT22;20159;51.072;13.526;2022-08-18T16:02:41;35.80;42.00
33865;DHT22;20159;51.072;13.526;2022-08-18T16:05:07;35.90;42.00
33865;DHT22;20159;51.072;13.526;2022-08-18T16:07:33;35.90;42.00
33865;DHT22;20159;51.072;13.526;2022-08-18T16:10:00;36.00;41.80
33865;DHT22;20159;51.072;13.526;2022-08-18T16:12:25;36.00;41.80
33865;DHT22;20159;51.072;13.526;2022-08-18T16:14:51;36.10;41.80
33865;DHT22;20159;51.072;13.526;2022-08-18T16:17:17;36.20;41.60
33865;DHT22;20159;51.072;13.526;2022-08-18T16:19:44;36.20;41.40
33865;DHT22;20159;51.072;13.526;2022-08-18T16:22:10;36.30;41.60
33865;DHT22;20159;51.072;13.526;2022-08-18T16:24:35;36.40;41.80
33865;DHT22;20159;51.072;13.526;2022-08-18T16:27:01;36.40;41.40
33865;DHT22;20159;51.072;13.526;2022-08-18T16:29:26;36.50;41.20
33865;DHT22;20159;51.072;13.526;2022-08-18T16:31:52;36.50;41.20
33865;DHT22;20159;51.072;13.526;2022-08-18T16:34:17;36.40;41.00
33865;DHT22;20159;51.072;13.526;2022-08-18T16:36:43;36.30;41.00
33865;DHT22;20159;51.072;13.526;2022-08-18T16:39:08;36.20;41.10
33865;DHT22;20159;51.072;13.526;2022-08-18T16:41:34;36.00;41.20
33865;DHT22;20159;51.072;13.526;2022-08-18T16:43:59;35.80;41.40
33865;DHT22;20159;51.072;13.526;2022-08-18T16:46:26;35.50;41.50
33865;DHT22;20159;51.072;13.526;2022-08-18T16:48:53;35.30;41.90
33865;DHT22;20159;51.072;13.526;2022-08-18T16:51:21;35.00;42.30
33865;DHT22;20159;51.072;13.526;2022-08-18T16:53:48;34.70;42.60
33865;DHT22;20159;51.072;13.526;2022-08-18T16:56:18;34.50;43.00
33865;DHT22;20159;51.072;13.526;2022-08-18T16:58:44;34.20;43.20
33865;DHT22;20159;51.072;13.526;2022-08-18T17:01:28;33.90;43.40
33865;DHT22;20159;51.072;13.526;2022-08-18T17:04:17;33.60;43.70
33865;DHT22;20159;51.072;13.526;2022-08-18T17:06:43;33.40;44.30
33865;DHT22;20159;51.072;13.526;2022-08-18T17:09:09;33.10;44.40
33865;DHT22;20159;51.072;13.526;2022-08-18T17:11:36;32.90;44.80
33865;DHT22;20159;51.072;13.526;2022-08-18T17:14:03;32.60;45.00
33865;DHT22;20159;51.072;13.526;2022-08-18T17:16:29;32.40;45.30
33865;DHT22;20159;51.072;13.526;2022-08-18T17:18:56;32.20;45.70
33865;DHT22;20159;51.072;13.526;2022-08-18T17:21:24;32.00;46.00
33865;DHT22;20159;51.072;13.526;2022-08-18T17:23:51;31.80;46.30
33865;DHT22;20159;51.072;13.526;2022-08-18T17:29:05;31.50;47.20
33865;DHT22;20159;51.072;13.526;2022-08-18T17:31:31;31.30;47.20
33865;DHT22;20159;51.072;13.526;2022-08-18T17:34:05;31.10;47.30
33865;DHT22;20159;51.072;13.526;2022-08-18T17:36:37;31.00;47.70
33865;DHT22;20159;51.072;13.526;2022-08-18T17:39:05;30.80;48.00
33865;DHT22;20159;51.072;13.526;2022-08-18T17:41:33;30.70;48.30